Portada
METAR-TAF:

METAR-TAF

Aeropuertos :

Kish, Irán

latitud: 26-31-36N, longitud: 053-58-54E, altitud: 30 m

Observación

El informe se hizo hace 48 minutos, a las 00:00 UTC
Viento 8 kt del oeste-noroeste
Temperatura 20°C
Humedad 94%
Presión 1011 hPa
Visibilidad: 6000 m

METAR: OIBK 210000Z 29008KT 6000 NSC 20/19 Q1011

Hora: 04:18 (00:48 UTC)

Pronóstico

El informe se hizo hace 1 hora y 48 minutos, a las 23:00 UTC
Pronóstico válido del 21 a las 00 UTC al 22 a las 06 UTC
Viento 12 kt del oeste-noroeste
Visibilidad: 8000 m

TAF: OIBK 202300Z 2100/2206 30012KT 8000 NSC

Observaciones y pronósticos meteorológicos de más de 4000 aeropuertos (mensajes METAR y TAF).

Los puntos amarillos y rojos representan las estaciones disponibles.

Ponga el ratón en el punto deseado para ver el nombre de la estación.

Haga clic para ver las observaciones y los pronósticos meteorológicos.

Para cambiar el mapa : haga clic en los botones verdes con una cruz de color negro para hacer un zoom, en el botón verde con un guión para alejar o en las flechas verdes para mapas adyacentes.


METAR-TAF: